This is the latest recevied weather packets stored in our database for station/object VA7NEZ. If no packets are shown the sender has not sent any weather packets the latest 10 day(s).
| Time | Temp. | Humidity | Pressure | Rain* | Wind** | Luminosity | Snow |
|---|---|---|---|---|---|---|---|
| 1777652640 | 13.89° C | 51% | 1018.3 hPa | 0 mm | - | - | - |
| 1777651626 | 13.89° C | 51% | 1018.4 hPa | 0 mm | - | - | - |
| 1777651081 | 13.89° C | 50% | 1018.3 hPa | 0 mm | - | - | - |
| 1777650011 | 13.89° C | 56% | 1018.7 hPa | 0 mm | - | - | - |
| 1777649431 | 13.33° C | 55% | 1018.6 hPa | 0 mm | - | - | - |
| 1777648931 | 0° C | 100% | 1018.8 hPa | 0 mm | - | - | - |
| 1777648448 | 13.33° C | 56% | 1018.7 hPa | 0 mm | - | - | - |
| 1777647906 | 0° C | 100% | 1018.8 hPa | 0 mm | - | - | - |
| 1777647330 | 0° C | 100% | 1018.7 hPa | 0 mm | - | - | - |
| 1777646845 | 0° C | 100% | 1018.6 hPa | 0 mm | - | - | - |
| 1777646306 | 11.67° C | 62% | 1018.5 hPa | 0 mm | - | - | - |
| 1777645796 | 0° C | 100% | 1018.5 hPa | 0 mm | - | - | - |
| 1777645217 | 10° C | 68% | 1018.5 hPa | 0 mm | - | - | - |
| 1777644626 | 9.44° C | 68% | 1018.5 hPa | 0 mm | - | - | - |
| 1777644036 | 9.44° C | 69% | 1018.4 hPa | 0 mm | - | - | - |
| 1777643481 | 0° C | 100% | 1018.3 hPa | 0 mm | - | - | - |
| 1777642456 | 0° C | 100% | 1018.4 hPa | 0 mm | - | - | - |
| 1777641336 | 0° C | 100% | 1018.2 hPa | 0 mm | - | - | - |
| 1777640852 | 8.33° C | 68% | 1018.1 hPa | 0 mm | - | - | - |
| 1777640336 | 0° C | 100% | 1018.1 hPa | 0 mm | - | - | - |
| 1777638746 | 0° C | 100% | 1018 hPa | 0 mm | - | - | - |
| 1777638186 | 0° C | 100% | 1018 hPa | 0 mm | - | - | - |
| 1777637656 | 0° C | 100% | 1018 hPa | 0 mm | - | - | - |
| 1777637121 | 0° C | 100% | 1018.1 hPa | 0 mm | - | - | - |
| 1777636556 | 0° C | 100% | 1018 hPa | 0 mm | - | - | - |
* Rain latest hour (hover to see other rain measurements)
** Current wind speed in m/s (hover to see current wind gust speed)